NWS102 UWWW-URSS
Flight info
| Callsign | NWS102 |
|---|---|
| Flight time | 2h 40m |
| Altitude | 36000 |
| Route | GITEK T784 DENUD M161 URL W324 AKT N37 IPLED GOTIK MEMZA VENFO BINOL |
| Aircraft | A332/M-DFSD/L |
Departure
| Time | 2025-10-07 07:54 |
|---|---|
| Airport | Kurumoch International Airport (UWWW) |
Arrival
| Time | 2025-10-07 10:35 |
|---|---|
| Airport | Sochi International Airport (URSS) |
| Time | Latitude | Longitude | Altitude | Speed | Heading |
|---|---|---|---|---|---|
| 2025-10-07 07:53 | 53.39732 | 50.23628 | 6597 ft | 255 kts | 178° |
| 2025-10-07 07:54 | 53.36137 | 50.23421 | 8428 ft | 263 kts | 185° |
| 2025-10-07 07:54 | 53.32410 | 50.23033 | 10243 ft | 273 kts | 185° |
| 2025-10-07 07:55 | 53.30463 | 50.22839 | 10784 ft | 290 kts | 185° |
| 2025-10-07 07:55 | 53.26122 | 50.22422 | 11439 ft | 334 kts | 185° |
| 2025-10-07 07:56 | 53.18768 | 50.21740 | 13295 ft | 364 kts | 186° |
| 2025-10-07 07:56 | 53.16215 | 50.21505 | 14067 ft | 369 kts | 186° |
| 2025-10-07 07:57 | 53.05693 | 50.20532 | 16690 ft | 390 kts | 187° |
| 2025-10-07 07:57 | 53.02974 | 50.20282 | 17356 ft | 394 kts | 187° |
| 2025-10-07 07:58 | 52.97429 | 50.19771 | 18669 ft | 403 kts | 187° |
| 2025-10-07 07:58 | 52.91774 | 50.19252 | 19792 ft | 410 kts | 187° |
| 2025-10-07 07:59 | 52.88912 | 50.18990 | 20353 ft | 414 kts | 187° |
| 2025-10-07 07:59 | 52.83228 | 50.17589 | 21442 ft | 412 kts | 203° |
| 2025-10-07 08:00 | 52.77937 | 50.13851 | 22515 ft | 416 kts | 208° |
| 2025-10-07 08:00 | 52.72596 | 50.09878 | 23504 ft | 424 kts | 208° |
| 2025-10-07 08:01 | 52.67203 | 50.05917 | 24421 ft | 431 kts | 207° |
| 2025-10-07 08:02 | 52.46629 | 50.12405 | 27418 ft | 485 kts | 142° |
| 2025-10-07 08:04 | 52.26032 | 50.42571 | 30470 ft | 510 kts | 141° |
| 2025-10-07 08:06 | 52.04725 | 50.72878 | 33784 ft | 508 kts | 141° |
| 2025-10-07 08:08 | 51.83715 | 50.91918 | 35901 ft | 495 kts | 170° |
| 2025-10-07 08:10 | 51.55040 | 51.11626 | 36254 ft | 513 kts | 150° |
| 2025-10-07 08:12 | 51.34231 | 51.33893 | 36253 ft | 515 kts | 150° |
| 2025-10-07 08:14 | 51.09298 | 51.54794 | 36272 ft | 495 kts | 180° |
| 2025-10-07 08:16 | 50.81925 | 51.56617 | 36251 ft | 494 kts | 184° |
| 2025-10-07 08:18 | 50.50858 | 51.58653 | 36251 ft | 497 kts | 184° |
| 2025-10-07 08:20 | 50.23181 | 51.60519 | 36255 ft | 499 kts | 185° |
| 2025-10-07 08:22 | 49.96498 | 51.62336 | 36255 ft | 501 kts | 185° |
| 2025-10-07 08:24 | 49.72092 | 51.63976 | 36247 ft | 501 kts | 185° |
| 2025-10-07 08:26 | 49.40728 | 51.66061 | 36246 ft | 504 kts | 186° |
| 2025-10-07 08:28 | 49.12583 | 51.67910 | 36246 ft | 506 kts | 186° |
| 2025-10-07 08:30 | 48.84397 | 51.69736 | 36243 ft | 508 kts | 186° |
| 2025-10-07 08:33 | 48.52542 | 51.71773 | 36235 ft | 510 kts | 186° |
| 2025-10-07 08:34 | 48.27678 | 51.73343 | 36212 ft | 511 kts | 186° |
| 2025-10-07 08:37 | 47.95696 | 51.75341 | 36220 ft | 512 kts | 186° |
| 2025-10-07 08:38 | 47.70841 | 51.76860 | 36207 ft | 510 kts | 186° |
| 2025-10-07 08:41 | 47.38909 | 51.78766 | 36209 ft | 509 kts | 186° |
| 2025-10-07 08:42 | 47.14181 | 51.79926 | 36203 ft | 499 kts | 194° |
| 2025-10-07 08:44 | 46.87093 | 51.74115 | 36183 ft | 492 kts | 197° |
| 2025-10-07 08:46 | 46.60086 | 51.68143 | 36204 ft | 491 kts | 197° |
| 2025-10-07 08:48 | 46.33213 | 51.62244 | 36194 ft | 490 kts | 197° |
| 2025-10-07 08:50 | 46.11638 | 51.57518 | 36185 ft | 487 kts | 196° |
| 2025-10-07 08:52 | 45.88087 | 51.52402 | 36192 ft | 487 kts | 196° |
| 2025-10-07 08:54 | 45.72163 | 51.48965 | 36184 ft | 488 kts | 196° |
| 2025-10-07 08:57 | 45.41883 | 51.42494 | 36168 ft | 489 kts | 195° |
| 2025-10-07 08:58 | 45.18389 | 51.37524 | 36150 ft | 488 kts | 195° |
| 2025-10-07 09:00 | 44.94931 | 51.32599 | 35151 ft | 492 kts | 195° |
| 2025-10-07 09:02 | 44.64682 | 51.25661 | 35119 ft | 488 kts | 196° |
| 2025-10-07 09:05 | 44.34658 | 51.18160 | 35123 ft | 485 kts | 196° |
| 2025-10-07 09:06 | 44.14803 | 51.13257 | 35114 ft | 486 kts | 195° |
| 2025-10-07 09:09 | 43.84869 | 50.97483 | 35102 ft | 448 kts | 241° |
| 2025-10-07 09:10 | 43.76374 | 50.70080 | 35114 ft | 443 kts | 250° |
| 2025-10-07 09:12 | 43.68494 | 50.43835 | 35095 ft | 444 kts | 250° |
| 2025-10-07 09:14 | 43.57688 | 50.08321 | 35106 ft | 445 kts | 249° |
| 2025-10-07 09:16 | 43.49228 | 49.80854 | 35090 ft | 445 kts | 249° |
| 2025-10-07 09:18 | 43.39917 | 49.44965 | 35091 ft | 441 kts | 270° |
| 2025-10-07 09:20 | 43.41023 | 49.15513 | 35087 ft | 441 kts | 273° |
| 2025-10-07 09:22 | 43.42289 | 48.81861 | 35080 ft | 441 kts | 272° |
| 2025-10-07 09:24 | 43.43593 | 48.43969 | 35069 ft | 441 kts | 272° |
| 2025-10-07 09:26 | 43.44646 | 48.10254 | 35062 ft | 440 kts | 272° |
| 2025-10-07 09:29 | 43.45709 | 47.72454 | 35048 ft | 439 kts | 271° |
| 2025-10-07 09:30 | 43.46450 | 47.43049 | 35045 ft | 439 kts | 271° |
| 2025-10-07 09:33 | 43.47290 | 47.05339 | 35033 ft | 438 kts | 271° |
| 2025-10-07 09:34 | 43.47857 | 46.76043 | 35028 ft | 438 kts | 271° |
| 2025-10-07 09:37 | 43.48477 | 46.38316 | 35023 ft | 437 kts | 270° |
| 2025-10-07 09:38 | 43.48871 | 46.09154 | 35030 ft | 436 kts | 270° |
| 2025-10-07 09:41 | 43.51606 | 45.71716 | 35045 ft | 435 kts | 275° |
| 2025-10-07 09:42 | 43.53840 | 45.43960 | 35021 ft | 374 kts | 275° |
| 2025-10-07 09:44 | 43.56198 | 45.13435 | 35038 ft | 417 kts | 275° |
| 2025-10-07 09:46 | 43.58575 | 44.81649 | 35036 ft | 417 kts | 275° |
| 2025-10-07 09:48 | 43.60860 | 44.49864 | 35036 ft | 416 kts | 274° |
| 2025-10-07 09:50 | 43.62794 | 44.21937 | 35019 ft | 418 kts | 274° |
| 2025-10-07 09:52 | 43.64187 | 43.85487 | 33567 ft | 432 kts | 271° |
| 2025-10-07 09:54 | 43.65067 | 43.52133 | 31551 ft | 438 kts | 270° |
| 2025-10-07 09:56 | 43.65853 | 43.18806 | 29614 ft | 427 kts | 269° |
| 2025-10-07 09:58 | 43.66519 | 42.86491 | 27541 ft | 415 kts | 269° |
| 2025-10-07 10:00 | 43.67062 | 42.56300 | 25655 ft | 405 kts | 269° |
| 2025-10-07 10:01 | 43.67309 | 42.40820 | 24726 ft | 401 kts | 268° |
| 2025-10-07 10:02 | 43.67426 | 42.33117 | 24292 ft | 399 kts | 268° |
| 2025-10-07 10:02 | 43.67535 | 42.25507 | 23843 ft | 397 kts | 268° |
| 2025-10-07 10:03 | 43.67637 | 42.17823 | 23356 ft | 395 kts | 268° |
| 2025-10-07 10:03 | 43.67685 | 42.14088 | 23101 ft | 394 kts | 268° |
| 2025-10-07 10:04 | 43.67782 | 42.06542 | 22589 ft | 392 kts | 268° |
| 2025-10-07 10:04 | 43.67912 | 41.95323 | 21818 ft | 388 kts | 268° |
| 2025-10-07 10:05 | 43.67997 | 41.87890 | 21326 ft | 386 kts | 268° |
| 2025-10-07 10:05 | 43.68073 | 41.80497 | 20844 ft | 384 kts | 268° |
| 2025-10-07 10:06 | 43.68144 | 41.73168 | 20365 ft | 382 kts | 268° |
| 2025-10-07 10:06 | 43.68214 | 41.65815 | 20052 ft | 381 kts | 268° |
| 2025-10-07 10:07 | 43.68276 | 41.58500 | 20050 ft | 381 kts | 268° |
| 2025-10-07 10:07 | 43.68330 | 41.51191 | 20058 ft | 381 kts | 268° |
| 2025-10-07 10:08 | 43.68356 | 41.47551 | 20060 ft | 381 kts | 268° |
| 2025-10-07 10:08 | 43.68429 | 41.36560 | 20054 ft | 380 kts | 268° |
| 2025-10-07 10:09 | 43.68473 | 41.29256 | 20053 ft | 380 kts | 268° |
| 2025-10-07 10:09 | 43.68504 | 41.21961 | 20053 ft | 380 kts | 268° |
| 2025-10-07 10:10 | 43.68537 | 41.14673 | 20052 ft | 381 kts | 268° |
| 2025-10-07 10:10 | 43.68554 | 41.10954 | 20052 ft | 381 kts | 268° |
| 2025-10-07 10:11 | 43.68583 | 41.03681 | 20059 ft | 380 kts | 268° |
| 2025-10-07 10:11 | 43.68606 | 40.96378 | 20057 ft | 379 kts | 268° |
| 2025-10-07 10:12 | 43.68627 | 40.89074 | 20060 ft | 380 kts | 268° |
| 2025-10-07 10:12 | 43.68694 | 40.78127 | 20056 ft | 380 kts | 268° |
| 2025-10-07 10:13 | 43.68727 | 40.70816 | 20054 ft | 380 kts | 268° |
| 2025-10-07 10:13 | 43.68755 | 40.63559 | 20057 ft | 379 kts | 268° |
| 2025-10-07 10:14 | 43.68773 | 40.56269 | 20043 ft | 379 kts | 267° |
| 2025-10-07 10:14 | 43.68780 | 40.52613 | 20042 ft | 380 kts | 268° |
| 2025-10-07 10:15 | 43.68801 | 40.45312 | 20047 ft | 379 kts | 267° |
| 2025-10-07 10:15 | 43.68811 | 40.38054 | 20039 ft | 378 kts | 267° |
| 2025-10-07 10:16 | 43.68817 | 40.30792 | 20024 ft | 378 kts | 267° |
| 2025-10-07 10:16 | 43.68816 | 40.19945 | 20023 ft | 378 kts | 267° |
| 2025-10-07 10:17 | 43.67823 | 40.12957 | 19572 ft | 371 kts | 241° |
| 2025-10-07 10:17 | 43.64271 | 40.08024 | 18891 ft | 369 kts | 210° |
| 2025-10-07 10:18 | 43.59637 | 40.05044 | 18234 ft | 369 kts | 205° |
| 2025-10-07 10:18 | 43.57283 | 40.03610 | 17846 ft | 368 kts | 205° |
| 2025-10-07 10:19 | 43.50343 | 39.99306 | 16757 ft | 361 kts | 205° |
| 2025-10-07 10:19 | 43.48060 | 39.97881 | 16395 ft | 359 kts | 205° |
| 2025-10-07 10:20 | 43.43440 | 39.95319 | 15531 ft | 355 kts | 199° |
| 2025-10-07 10:20 | 43.36491 | 39.92153 | 14290 ft | 340 kts | 199° |
| 2025-10-07 10:21 | 43.32100 | 39.90160 | 13513 ft | 326 kts | 198° |
| 2025-10-07 10:21 | 43.27880 | 39.88244 | 12598 ft | 318 kts | 198° |
| 2025-10-07 10:22 | 43.23745 | 39.86366 | 11706 ft | 309 kts | 198° |
| 2025-10-07 10:22 | 43.21702 | 39.85440 | 11286 ft | 305 kts | 197° |
| 2025-10-07 10:23 | 43.17710 | 39.83631 | 10428 ft | 298 kts | 197° |
| 2025-10-07 10:23 | 43.13788 | 39.81859 | 9908 ft | 311 kts | 197° |
| 2025-10-07 10:24 | 43.09792 | 39.80054 | 9385 ft | 292 kts | 197° |
| 2025-10-07 10:24 | 43.04199 | 39.79832 | 8618 ft | 276 kts | 144° |
| 2025-10-07 10:25 | 43.02687 | 39.84467 | 8133 ft | 284 kts | 85° |
| 2025-10-07 10:25 | 43.04951 | 39.88729 | 7648 ft | 292 kts | 27° |
| 2025-10-07 10:26 | 43.06901 | 39.89403 | 7481 ft | 293 kts | 4° |
| 2025-10-07 10:26 | 43.10907 | 39.88676 | 7091 ft | 295 kts | 339° |
| 2025-10-07 10:27 | 43.14494 | 39.85882 | 6691 ft | 297 kts | 327° |
| 2025-10-07 10:27 | 43.19685 | 39.81295 | 6051 ft | 295 kts | 327° |
| 2025-10-07 10:28 | 43.21405 | 39.79758 | 5828 ft | 295 kts | 327° |
| 2025-10-07 10:28 | 43.26507 | 39.75134 | 5097 ft | 288 kts | 327° |
| 2025-10-07 10:29 | 43.29977 | 39.72635 | 4530 ft | 277 kts | 341° |
| 2025-10-07 10:29 | 43.33610 | 39.71016 | 3930 ft | 270 kts | 347° |
| 2025-10-07 10:30 | 43.37037 | 39.71547 | 3348 ft | 247 kts | 45° |
| 2025-10-07 10:30 | 43.37896 | 39.73483 | 3074 ft | 235 kts | 76° |
| 2025-10-07 10:31 | 43.39509 | 39.79560 | 2201 ft | 218 kts | 64° |
| 2025-10-07 10:31 | 43.40722 | 39.83082 | 1971 ft | 181 kts | 65° |
| 2025-10-07 10:32 | 43.41762 | 39.86159 | 1149 ft | 177 kts | 63° |
| 2025-10-07 10:33 | 43.43206 | 39.90380 | 451 ft | 150 kts | 65° |
| 2025-10-07 10:33 | 43.44033 | 39.92822 | 53 ft | 131 kts | 65° |
| 2025-10-07 10:33 | 43.44368 | 39.93812 | 60 ft | 98 kts | 65° |
| 2025-10-07 10:34 | 43.44634 | 39.94580 | 84 ft | 11 kts | 62° |
| 2025-10-07 10:34 | 43.44748 | 39.94770 | 83 ft | 16 kts | 358° |
| 2025-10-07 10:35 | 43.44904 | 39.94665 | 70 ft | 0 kts | 335° |